AGROMETEOROLOŠKI PORTAL

vinorodna pokrajina

Temelj dobrega kmetovanja

Pregled podatkov za lokacijo RAVNE NA KOROŠKEM - ARSO, meteorološka postaja 132

Pregled senzorjev na lokaciji

ID Ime Zadnja
vrednost
Datum in čas
meritve
(lokalni čas)
Tip
senzorja
6007 Sončno sevanje (W/m2) 0 W/m2 25.9.2022 23:30 ARSO
2967 Padavine (mm) 0 mm 25.9.2022 23:30 ARSO
2975 Relativna zračna vlaga (2 m) (% RH) 95 % RH 25.9.2022 23:30 ARSO
2974 Temperatura (2 m) (°C) 12,4 °C 25.9.2022 23:30 ARSO
2979 Smer vetra (2 m) (°) 31 ° 25.9.2022 23:30 ARSO
2980 Hitrost vetra (2 m) (km/h) 8 km/h 25.9.2022 23:30 ARSO

Pregled podatkov zadnjih 24 ur

Zap.
št.
Datum in čas
(lokalni čas)
RAVNE NA KOROŠKEM - ARSO
Sončno
sevanje
Padavine Relativna
zračna
vlaga
(2
m)
Temperatura
(2
m)
Smer
vetra
(2
m)
Hitrost
vetra
(2
m)
1 25.9.2022 23:30 0 0 95 12,4 31 8
2 25.9.2022 23:00 0 0 94 12,5 30 6
3 25.9.2022 22:30 0 0,2 94 12,5 30 5
4 25.9.2022 22:00 0 0 94 12,6 12 5
5 25.9.2022 21:30 0 0 93 12,6 63 5
6 25.9.2022 21:00 0 0 93 12,6 34 9
7 25.9.2022 20:30 0 0 92 12,8 42 6
8 25.9.2022 20:00 0 0 92 12,9 50 5
9 25.9.2022 19:30 0 0 91 13 49 6
10 25.9.2022 19:00 9 0 90 13,4 34 9
11 25.9.2022 18:30 20 0 90 13,7 75 7
12 25.9.2022 18:00 31 0 89 13,8 91 7
13 25.9.2022 17:30 47 0 88 14 61 6
14 25.9.2022 17:00 92 0 87 14 74 4
15 25.9.2022 16:30 114 0 90 13,8 98 8
16 25.9.2022 16:00 105 0 90 13,8 224 4
17 25.9.2022 15:30 114 0,2 88 14 349 5
18 25.9.2022 15:00 163 0,2 88 13,9 80 5
19 25.9.2022 14:30 243 0 90 13,8 34 6
20 25.9.2022 14:00 196 0,4 91 13,3 31 8
21 25.9.2022 13:30 190 0,8 93 12,8 79 4
22 25.9.2022 13:00 157 0,6 94 12,6 222 5
23 25.9.2022 12:30 124 0,9 95 12,6 221 5
24 25.9.2022 12:00 85 1,2 95 12,4 310 4
25 25.9.2022 11:30 121 0,6 95 11,9 350 5
26 25.9.2022 11:00 69 1,1 95 11,5 10 6
27 25.9.2022 10:30 79 0,8 95 11,1 178 3
28 25.9.2022 10:00 54 0,8 95 10,8 23 7
29 25.9.2022 09:30 38 1,2 95 10,5 56 4
30 25.9.2022 09:00 18 0,6 95 10,4 350 3
31 25.9.2022 08:30 14 0,6 95 10,2 18 2
32 25.9.2022 08:00 9 0,4 94 10,1 43 3
33 25.9.2022 07:30 4 0,4 94 10 24 3
34 25.9.2022 07:00 0 0 94 10 184 1
35 25.9.2022 06:30 0 0,2 94 9,9 21 3
36 25.9.2022 06:00 0 0,4 93 9,9 5 3
37 25.9.2022 05:30 0 0 92 9,9 168 1
38 25.9.2022 05:00 0 0 92 9,8 4 3
39 25.9.2022 04:30 0 0 92 9,6 114 1
40 25.9.2022 04:00 0 0 92 9,5 231 2
41 25.9.2022 03:30 0 0 92 9,3 9 3
42 25.9.2022 03:00 0 0 92 9,2 243 1
43 25.9.2022 02:30 0 0 92 9,2 14 3
44 25.9.2022 02:00 0 0 92 9 350 2
45 25.9.2022 01:30 0 0 92 9 349 2
46 25.9.2022 01:00 0 0 92 9 352 4